createdAt,value
2023-04-23T00:00:15.837Z,100381.40
2023-04-23T00:03:10.516Z,100374.40
2023-04-23T00:05:40.084Z,100367.80
2023-04-23T00:08:10.918Z,100370.80
2023-04-23T00:10:39.900Z,100368.20
2023-04-23T00:13:10.366Z,100365.80
2023-04-23T00:15:39.295Z,100365.00
2023-04-23T00:18:08.390Z,100360.40
2023-04-23T00:20:37.230Z,100351.20
2023-04-23T00:23:05.967Z,100349.20
2023-04-23T00:25:34.869Z,100349.20
2023-04-23T00:28:04.060Z,100344.20
2023-04-23T00:30:32.795Z,100343.60
2023-04-23T00:33:01.604Z,100339.00
2023-04-23T00:35:30.521Z,100332.80
2023-04-23T00:37:59.339Z,100330.60
2023-04-23T00:40:28.031Z,100331.40
2023-04-23T00:42:58.510Z,100324.80
2023-04-23T00:45:27.228Z,100329.80
2023-04-23T00:47:56.972Z,100324.20
2023-04-23T00:50:26.372Z,100318.60
2023-04-23T00:52:55.023Z,100316.20
2023-04-23T00:55:23.621Z,100314.60
2023-04-23T00:57:52.498Z,100312.00
2023-04-23T01:00:21.803Z,100312.20
2023-04-23T01:02:53.471Z,100310.60
2023-04-23T01:05:24.088Z,100308.00
2023-04-23T01:07:52.781Z,100311.40
2023-04-23T01:10:21.777Z,100305.60
2023-04-23T01:12:50.973Z,100308.40
2023-04-23T01:15:19.964Z,100301.00
2023-04-23T01:17:48.672Z,100301.60
2023-04-23T01:20:17.601Z,100301.60
2023-04-23T01:22:46.337Z,100295.80
2023-04-23T01:25:15.180Z,100296.40
2023-04-23T01:27:44.418Z,100295.80
2023-04-23T01:30:13.809Z,100292.00
2023-04-23T01:32:43.672Z,100289.80
2023-04-23T01:35:13.386Z,100286.20
2023-04-23T01:37:43.684Z,100285.40
2023-04-23T01:40:13.500Z,100284.20
2023-04-23T01:42:42.283Z,100285.60
2023-04-23T01:45:11.909Z,100282.40
2023-04-23T01:47:42.369Z,100280.40
2023-04-23T01:50:11.250Z,100281.20
2023-04-23T01:52:40.710Z,100279.20
2023-04-23T01:55:09.757Z,100276.60
2023-04-23T01:57:38.399Z,100278.60
2023-04-23T02:00:11.470Z,100275.40
2023-04-23T02:02:45.151Z,100279.40
2023-04-23T02:05:19.665Z,100279.60
2023-04-23T02:07:51.124Z,100275.00
2023-04-23T02:10:20.899Z,100273.20
2023-04-23T02:12:49.555Z,100269.00
2023-04-23T02:15:20.133Z,100269.60
2023-04-23T02:17:51.481Z,100268.00
2023-04-23T02:20:21.999Z,100267.60
2023-04-23T02:22:51.688Z,100268.60
2023-04-23T02:25:22.208Z,100268.80
2023-04-23T02:27:50.997Z,100271.00
2023-04-23T02:30:19.702Z,100268.00
2023-04-23T02:32:48.297Z,100269.80
2023-04-23T02:35:17.080Z,100271.20
2023-04-23T02:37:46.062Z,100268.20
2023-04-23T02:40:14.640Z,100268.60
2023-04-23T02:42:43.965Z,100272.40
2023-04-23T02:45:12.727Z,100272.60
2023-04-23T02:47:41.531Z,100266.80
2023-04-23T02:50:10.719Z,100266.20
2023-04-23T02:52:39.297Z,100263.00
2023-04-23T02:55:09.705Z,100261.00
2023-04-23T02:57:38.416Z,100267.00
2023-04-23T03:00:08.798Z,100266.00
2023-04-23T03:02:42.605Z,100267.40
2023-04-23T03:05:11.687Z,100267.20
2023-04-23T03:07:40.438Z,100267.20
2023-04-23T03:10:09.994Z,100267.60
2023-04-23T03:12:38.839Z,100268.60
2023-04-23T03:15:09.308Z,100269.00
2023-04-23T03:17:38.944Z,100267.00
2023-04-23T03:20:11.762Z,100263.40
2023-04-23T03:22:40.971Z,100262.60
2023-04-23T03:25:10.386Z,100267.60
2023-04-23T03:27:42.669Z,100266.80
2023-04-23T03:30:11.982Z,100264.80
2023-04-23T03:32:40.596Z,100265.60
2023-04-23T03:35:10.266Z,100268.00
2023-04-23T03:37:40.792Z,100266.20
2023-04-23T03:40:10.363Z,100260.20
2023-04-23T03:42:40.728Z,100261.20
2023-04-23T03:45:11.604Z,100259.20
2023-04-23T03:47:40.948Z,100254.20
2023-04-23T03:50:10.370Z,100257.60
2023-04-23T03:52:39.690Z,100259.00
2023-04-23T03:55:10.709Z,100258.60
2023-04-23T03:57:44.428Z,100260.20
2023-04-23T04:00:25.358Z,100261.60
2023-04-23T04:02:54.153Z,100262.80
2023-04-23T04:05:24.443Z,100255.80
2023-04-23T04:07:56.026Z,100257.20
2023-04-23T04:10:26.395Z,100254.40
2023-04-23T04:12:55.569Z,100256.20
2023-04-23T04:15:24.373Z,100251.40
2023-04-23T04:17:53.121Z,100250.40
2023-04-23T04:20:21.749Z,100248.00
2023-04-23T04:22:50.337Z,100249.20
2023-04-23T04:25:19.122Z,100247.40
2023-04-23T04:27:48.328Z,100244.60
2023-04-23T04:30:17.014Z,100247.60
2023-04-23T04:32:46.631Z,100248.60
2023-04-23T04:35:15.816Z,100244.60
2023-04-23T04:37:44.909Z,100244.40
2023-04-23T04:40:15.389Z,100240.80
2023-04-23T04:42:43.936Z,100242.20
2023-04-23T04:45:13.220Z,100244.20
2023-04-23T04:47:42.267Z,100237.40
2023-04-23T04:50:11.805Z,100234.40
2023-04-23T04:52:40.817Z,100241.00
2023-04-23T04:55:10.112Z,100242.80
2023-04-23T04:57:38.597Z,100243.80
2023-04-23T05:00:29.714Z,100240.20
2023-04-23T05:02:59.316Z,100234.40
2023-04-23T05:05:28.564Z,100229.00
2023-04-23T05:07:59.767Z,100227.00
2023-04-23T05:10:29.835Z,100224.80
2023-04-23T05:12:58.780Z,100216.80
2023-04-23T05:15:27.470Z,100217.20
2023-04-23T05:17:56.311Z,100215.00
2023-04-23T05:20:25.595Z,100209.40
2023-04-23T05:22:54.253Z,100208.60
2023-04-23T05:25:23.041Z,100208.80
2023-04-23T05:27:52.030Z,100201.00
2023-04-23T05:30:20.817Z,100197.60
2023-04-23T05:32:50.470Z,100198.60
2023-04-23T05:35:19.454Z,100200.20
2023-04-23T05:37:48.003Z,100198.40
2023-04-23T05:40:17.318Z,100194.40
2023-04-23T05:42:46.089Z,100197.40
2023-04-23T05:45:14.687Z,100197.00
2023-04-23T05:47:43.420Z,100195.20
2023-04-23T05:50:12.683Z,100196.20
2023-04-23T05:52:41.346Z,100197.20
2023-04-23T05:55:10.863Z,100196.40
2023-04-23T05:57:39.749Z,100194.60
2023-04-23T06:00:12.575Z,100193.80
2023-04-23T06:02:42.214Z,100189.40
2023-04-23T06:05:11.604Z,100180.60
2023-04-23T06:07:41.551Z,100179.40
2023-04-23T06:10:11.386Z,100174.80
2023-04-23T06:12:40.461Z,100176.20
2023-04-23T06:15:10.480Z,100165.20
2023-04-23T06:17:39.503Z,100159.20
2023-04-23T06:20:10.999Z,100154.20
2023-04-23T06:22:39.636Z,100153.20
2023-04-23T06:25:09.285Z,100144.40
2023-04-23T06:27:37.805Z,100141.60
2023-04-23T06:30:12.766Z,100136.60
2023-04-23T06:32:41.373Z,100140.60
2023-04-23T06:35:10.427Z,100138.80
2023-04-23T06:37:38.907Z,100133.40
2023-04-23T06:40:08.569Z,100132.20
2023-04-23T06:42:37.098Z,100127.60
2023-04-23T06:45:20.737Z,100117.60
2023-04-23T06:47:50.107Z,100111.40
2023-04-23T06:50:18.937Z,100108.20
2023-04-23T06:52:47.707Z,100105.60
2023-04-23T06:55:16.607Z,100099.20
2023-04-23T06:57:46.016Z,100103.20
2023-04-23T07:00:15.549Z,100099.00
2023-04-23T07:02:44.965Z,100093.60
2023-04-23T07:05:14.006Z,100099.60
2023-04-23T07:07:43.644Z,100100.00
2023-04-23T07:10:13.519Z,100111.80
2023-04-23T07:12:42.979Z,100115.60
2023-04-23T07:15:12.214Z,100117.80
2023-04-23T07:17:40.860Z,100116.60
2023-04-23T07:20:09.678Z,100110.40
2023-04-23T07:22:38.217Z,100110.20
2023-04-23T07:25:08.934Z,100112.20
2023-04-23T07:27:37.749Z,100110.20
2023-04-23T07:30:08.296Z,100111.40
2023-04-23T07:32:37.735Z,100114.60
2023-04-23T07:35:08.761Z,100115.00
2023-04-23T07:37:38.361Z,100117.80
2023-04-23T07:40:08.693Z,100118.20
2023-04-23T07:42:37.240Z,100125.40
2023-04-23T07:45:06.817Z,100129.80
2023-04-23T07:47:35.645Z,100135.60
2023-04-23T07:50:04.915Z,100137.20
2023-04-23T07:52:33.522Z,100136.20
2023-04-23T07:55:03.206Z,100138.00
2023-04-23T07:57:32.119Z,100140.00
2023-04-23T08:00:01.118Z,100134.40
2023-04-23T08:02:29.914Z,100133.00
2023-04-23T08:04:58.774Z,100135.60
2023-04-23T08:07:27.690Z,100133.40
2023-04-23T08:09:59.499Z,100136.40
2023-04-23T08:12:28.240Z,100131.80
2023-04-23T08:14:57.031Z,100140.00
2023-04-23T08:17:30.429Z,100141.40
2023-04-23T08:19:59.429Z,100138.80
2023-04-23T08:22:28.205Z,100150.20
2023-04-23T08:24:56.798Z,100145.00
2023-04-23T08:27:25.696Z,100146.60
2023-04-23T08:29:54.284Z,100142.80
2023-04-23T08:32:23.258Z,100148.20
2023-04-23T08:34:52.407Z,100136.40
2023-04-23T08:37:30.438Z,100127.20
2023-04-23T08:40:02.419Z,100122.80
2023-04-23T08:42:57.681Z,100124.60
2023-04-23T08:45:27.143Z,100130.60
2023-04-23T08:48:02.665Z,100132.60
2023-04-23T08:50:32.296Z,100138.80
2023-04-23T08:53:02.141Z,100138.00
2023-04-23T08:55:31.879Z,100139.60
2023-04-23T08:58:02.881Z,100135.80
2023-04-23T09:00:31.892Z,100135.60
2023-04-23T09:03:01.200Z,100146.20
2023-04-23T09:05:31.516Z,100151.40
2023-04-23T09:08:00.381Z,100161.00
2023-04-23T09:10:29.395Z,100163.40
2023-04-23T09:12:58.260Z,100163.60
2023-04-23T09:15:27.530Z,100169.80
2023-04-23T09:17:57.383Z,100173.40
2023-04-23T09:20:26.793Z,100170.80
2023-04-23T09:22:55.480Z,100179.40
2023-04-23T09:25:25.015Z,100176.80
2023-04-23T09:27:54.870Z,100182.20
2023-04-23T09:30:25.638Z,100188.20
2023-04-23T09:32:55.539Z,100192.00
2023-04-23T09:35:28.483Z,100204.80
2023-04-23T09:37:57.729Z,100209.60
2023-04-23T09:40:27.641Z,100210.00
2023-04-23T09:42:56.331Z,100211.40
2023-04-23T09:45:27.861Z,100206.60
2023-04-23T09:47:59.055Z,100206.20
2023-04-23T09:50:41.331Z,100207.40
2023-04-23T09:53:10.943Z,100210.40
2023-04-23T09:55:42.627Z,100213.60
2023-04-23T09:58:18.249Z,100210.20
2023-04-23T10:00:48.169Z,100205.20
2023-04-23T10:03:27.988Z,100202.40
2023-04-23T10:06:01.602Z,100203.20
2023-04-23T10:08:32.587Z,100208.20
2023-04-23T10:11:13.718Z,100208.00
2023-04-23T10:13:49.997Z,100202.00
2023-04-23T10:16:25.245Z,100200.40
2023-04-23T10:19:02.114Z,100199.40
2023-04-23T10:21:39.695Z,100197.40
2023-04-23T10:24:21.577Z,100200.00
2023-04-23T10:26:51.727Z,100208.60
2023-04-23T10:29:27.261Z,100213.20
2023-04-23T10:32:04.756Z,100214.20
2023-04-23T10:34:34.286Z,100212.20
2023-04-23T10:37:03.992Z,100216.00
2023-04-23T10:39:35.145Z,100214.60
2023-04-23T10:42:05.525Z,100218.40
2023-04-23T10:47:18.216Z,100225.20
2023-04-23T10:49:46.774Z,100232.20
2023-04-23T10:52:21.703Z,100226.20
2023-04-23T10:55:00.370Z,100227.60
2023-04-23T10:57:29.229Z,100226.20
2023-04-23T10:59:59.152Z,100222.00
2023-04-23T11:02:44.528Z,100221.00
2023-04-23T11:05:13.522Z,100217.00
2023-04-23T11:07:42.194Z,100218.20
2023-04-23T11:10:15.580Z,100218.00
2023-04-23T11:12:45.202Z,100220.60
2023-04-23T11:15:19.578Z,100218.20
2023-04-23T11:17:48.934Z,100225.60
2023-04-23T11:20:22.692Z,100223.60
2023-04-23T11:22:53.384Z,100222.00
2023-04-23T11:25:28.566Z,100215.40
2023-04-23T11:28:01.656Z,100209.20
2023-04-23T11:30:30.890Z,100204.20
2023-04-23T11:33:01.710Z,100194.60
2023-04-23T11:35:38.103Z,100184.40
2023-04-23T11:38:10.616Z,100189.40
2023-04-23T11:40:40.711Z,100200.00
2023-04-23T11:43:10.004Z,100197.60
2023-04-23T11:45:38.726Z,100201.00
2023-04-23T11:48:07.420Z,100198.00
2023-04-23T11:50:37.529Z,100198.60
2023-04-23T11:53:09.667Z,100204.00
2023-04-23T11:55:38.767Z,100199.00
2023-04-23T11:58:07.290Z,100195.60
2023-04-23T12:00:36.126Z,100197.20
2023-04-23T12:03:06.553Z,100199.60
2023-04-23T12:05:41.220Z,100196.60
2023-04-23T12:08:18.325Z,100192.40
2023-04-23T12:10:59.550Z,100190.60
2023-04-23T12:13:31.455Z,100187.80
2023-04-23T12:16:03.837Z,100197.60
2023-04-23T12:18:42.743Z,100202.60
2023-04-23T12:21:15.286Z,100203.40
2023-04-23T12:23:45.485Z,100217.60
2023-04-23T12:26:16.952Z,100210.00
2023-04-23T12:28:51.860Z,100213.60
2023-04-23T12:31:23.350Z,100221.40
2023-04-23T12:34:06.505Z,100221.60
2023-04-23T12:36:41.178Z,100222.60
2023-04-23T12:39:36.920Z,100227.60
2023-04-23T12:42:09.932Z,100220.60
2023-04-23T12:44:39.935Z,100216.40
2023-04-23T12:47:11.683Z,100210.00
2023-04-23T12:49:42.356Z,100211.60
2023-04-23T12:52:13.545Z,100209.80
2023-04-23T12:54:45.034Z,100205.60
2023-04-23T12:57:14.592Z,100201.60
2023-04-23T12:59:43.384Z,100203.60
2023-04-23T13:02:12.464Z,100200.80
2023-04-23T13:04:41.094Z,100200.60
2023-04-23T13:07:10.294Z,100203.40
2023-04-23T13:09:39.031Z,100196.20
2023-04-23T13:12:07.563Z,100201.60
2023-04-23T13:14:36.561Z,100196.60
2023-04-23T13:17:05.037Z,100195.60
2023-04-23T13:19:35.783Z,100194.40
2023-04-23T13:22:05.591Z,100198.40
2023-04-23T13:24:34.177Z,100196.40
2023-04-23T13:27:03.063Z,100192.00
2023-04-23T13:29:31.750Z,100194.80
2023-04-23T13:32:01.188Z,100188.60
2023-04-23T13:34:31.172Z,100188.60
2023-04-23T13:37:00.618Z,100190.40
2023-04-23T13:39:29.265Z,100197.60
2023-04-23T13:42:09.060Z,100196.40
2023-04-23T13:44:38.541Z,100191.80
2023-04-23T13:47:07.309Z,100195.60
2023-04-23T13:49:36.450Z,100193.60
2023-04-23T13:52:07.262Z,100187.60
2023-04-23T13:54:36.109Z,100189.60
2023-04-23T13:57:05.021Z,100187.40
2023-04-23T13:59:33.725Z,100190.20
2023-04-23T14:02:02.191Z,100188.20
2023-04-23T14:04:31.033Z,100193.20
2023-04-23T14:06:59.974Z,100194.80
2023-04-23T14:09:30.241Z,100196.40
2023-04-23T14:11:59.087Z,100198.80
2023-04-23T14:14:27.720Z,100195.80
2023-04-23T14:16:56.498Z,100194.60
2023-04-23T14:19:25.273Z,100193.40
2023-04-23T14:21:54.045Z,100191.60
2023-04-23T14:24:35.029Z,100195.00
2023-04-23T14:27:05.687Z,100193.80
2023-04-23T14:29:47.030Z,100191.20
2023-04-23T14:32:15.512Z,100192.80
2023-04-23T14:34:45.230Z,100195.80
2023-04-23T14:37:14.033Z,100193.40
2023-04-23T14:39:42.908Z,100187.20
2023-04-23T14:42:11.907Z,100182.00
2023-04-23T14:44:40.582Z,100178.80
2023-04-23T14:47:10.509Z,100183.20
2023-04-23T14:49:42.019Z,100179.00
2023-04-23T14:52:10.976Z,100177.00
2023-04-23T14:54:39.528Z,100173.00
2023-04-23T14:57:08.134Z,100176.20
2023-04-23T14:59:36.698Z,100183.80
2023-04-23T15:02:05.958Z,100182.60
2023-04-23T15:04:35.767Z,100179.20
2023-04-23T15:07:04.293Z,100176.20
2023-04-23T15:09:32.881Z,100175.60
2023-04-23T15:12:04.358Z,100170.20
2023-04-23T15:14:37.729Z,100168.40
2023-04-23T15:17:06.326Z,100163.40
2023-04-23T15:19:35.014Z,100159.80
2023-04-23T15:22:03.488Z,100159.20
2023-04-23T15:24:32.169Z,100160.20
2023-04-23T15:27:02.409Z,100152.80
2023-04-23T15:29:30.983Z,100149.20
2023-04-23T15:31:59.993Z,100151.00
2023-04-23T15:34:28.472Z,100147.00
2023-04-23T15:36:57.146Z,100147.40
2023-04-23T15:39:26.581Z,100143.20
2023-04-23T15:41:55.132Z,100140.60
2023-04-23T15:44:25.199Z,100150.60
2023-04-23T15:46:53.737Z,100143.20
2023-04-23T15:49:22.346Z,100142.60
2023-04-23T15:51:51.009Z,100143.80
2023-04-23T15:54:19.703Z,100142.80
2023-04-23T15:56:48.478Z,100137.60
2023-04-23T15:59:17.061Z,100133.20
2023-04-23T16:01:45.843Z,100131.20
2023-04-23T16:04:14.465Z,100127.40
2023-04-23T16:06:43.633Z,100124.00
2023-04-23T16:09:12.128Z,100122.20
2023-04-23T16:11:41.234Z,100117.20
2023-04-23T16:14:10.420Z,100118.80
2023-04-23T16:16:39.203Z,100113.40
2023-04-23T16:19:08.093Z,100111.20
2023-04-23T16:21:36.987Z,100113.00
2023-04-23T16:24:07.893Z,100111.60
2023-04-23T16:26:37.676Z,100118.80
2023-04-23T16:29:21.430Z,100113.80
2023-04-23T16:31:51.306Z,100113.80
2023-04-23T16:34:20.007Z,100113.20
2023-04-23T16:36:48.773Z,100111.80
2023-04-23T16:39:17.352Z,100111.20
2023-04-23T16:41:45.951Z,100109.80
2023-04-23T16:44:14.522Z,100106.20
2023-04-23T16:46:43.180Z,100103.20
2023-04-23T16:49:13.768Z,100101.20
2023-04-23T16:51:42.323Z,100103.60
2023-04-23T16:54:11.209Z,100102.60
2023-04-23T16:56:40.211Z,100104.60
2023-04-23T16:59:09.548Z,100104.40
2023-04-23T17:01:38.206Z,100105.60
2023-04-23T17:04:07.564Z,100106.60
2023-04-23T17:06:36.390Z,100106.00
2023-04-23T17:09:05.598Z,100103.40
2023-04-23T17:11:34.373Z,100101.00
2023-04-23T17:14:02.968Z,100098.80
2023-04-23T17:16:31.676Z,100097.00
2023-04-23T17:19:00.537Z,100101.20
2023-04-23T17:21:29.127Z,100091.20
2023-04-23T17:23:58.021Z,100087.60
2023-04-23T17:26:26.912Z,100088.00
2023-04-23T17:28:55.589Z,100088.60
2023-04-23T17:31:24.232Z,100085.00
2023-04-23T17:33:53.890Z,100078.60
2023-04-23T17:36:22.578Z,100079.80
2023-04-23T17:38:51.171Z,100083.60
2023-04-23T17:41:19.856Z,100079.40
2023-04-23T17:43:49.667Z,100077.40
2023-04-23T17:46:18.405Z,100082.00
2023-04-23T17:48:48.467Z,100081.00
2023-04-23T17:51:17.159Z,100078.40
2023-04-23T17:53:48.811Z,100083.60
2023-04-23T17:56:17.508Z,100081.00
2023-04-23T17:58:46.289Z,100079.80
2023-04-23T18:01:15.726Z,100080.20
2023-04-23T18:03:45.404Z,100076.80
2023-04-23T18:06:15.034Z,100079.80
2023-04-23T18:08:44.423Z,100083.60
2023-04-23T18:11:13.216Z,100088.40
2023-04-23T18:13:43.425Z,100081.20
2023-04-23T18:16:12.093Z,100085.40
2023-04-23T18:18:41.015Z,100086.40
2023-04-23T18:21:09.905Z,100086.40
2023-04-23T18:23:38.684Z,100089.60
2023-04-23T18:26:07.594Z,100093.20
2023-04-23T18:28:37.508Z,100097.00
2023-04-23T18:31:06.849Z,100091.20
2023-04-23T18:33:49.043Z,100089.60
2023-04-23T18:36:26.282Z,100096.40
2023-04-23T18:38:57.285Z,100097.40
2023-04-23T18:41:30.168Z,100096.20
2023-04-23T18:44:00.917Z,100105.60
2023-04-23T18:46:31.616Z,100104.20
2023-04-23T18:49:35.493Z,100105.00
2023-04-23T18:52:05.104Z,100112.20
2023-04-23T18:54:35.186Z,100114.40
2023-04-23T18:57:04.023Z,100110.80
2023-04-23T18:59:36.199Z,100113.80
2023-04-23T19:02:08.190Z,100113.80
2023-04-23T19:04:39.629Z,100111.60
2023-04-23T19:07:09.819Z,100115.80
2023-04-23T19:09:38.401Z,100122.00
2023-04-23T19:12:08.798Z,100123.20
2023-04-23T19:14:38.282Z,100121.60
2023-04-23T19:17:06.924Z,100123.00
2023-04-23T19:19:35.838Z,100119.60
2023-04-23T19:22:04.923Z,100118.20
2023-04-23T19:24:35.651Z,100122.60
2023-04-23T19:27:05.723Z,100118.20
2023-04-23T19:29:34.253Z,100116.60
2023-04-23T19:32:04.581Z,100113.40
2023-04-23T19:34:34.982Z,100110.60
2023-04-23T19:37:05.167Z,100115.40
2023-04-23T19:39:34.854Z,100111.80
2023-04-23T19:42:04.031Z,100118.80
2023-04-23T19:44:34.740Z,100115.20
2023-04-23T19:47:04.086Z,100119.20
2023-04-23T19:49:32.851Z,100120.00
2023-04-23T19:52:04.920Z,100113.60
2023-04-23T19:54:33.513Z,100115.80
2023-04-23T19:57:02.497Z,100118.00
2023-04-23T19:59:30.978Z,100115.60
2023-04-23T20:01:59.563Z,100117.00
2023-04-23T20:04:28.602Z,100119.60
2023-04-23T20:06:57.250Z,100123.00
2023-04-23T20:09:25.931Z,100115.60
2023-04-23T20:11:54.724Z,100117.60
2023-04-23T20:14:23.309Z,100113.80
2023-04-23T20:16:52.631Z,100115.40
2023-04-23T20:19:21.823Z,100124.80
2023-04-23T20:21:50.797Z,100117.80
2023-04-23T20:24:21.669Z,100115.40
2023-04-23T20:26:50.633Z,100112.00
2023-04-23T20:29:19.215Z,100103.80
2023-04-23T20:31:49.784Z,100100.40
2023-04-23T20:34:18.373Z,100094.60
2023-04-23T20:36:51.420Z,100092.40
2023-04-23T20:39:24.483Z,100093.60
2023-04-23T20:41:55.042Z,100094.00
2023-04-23T20:44:24.137Z,100094.20
2023-04-23T20:46:53.232Z,100088.00
2023-04-23T20:49:22.659Z,100087.20
2023-04-23T20:51:51.737Z,100081.00
2023-04-23T20:54:20.320Z,100077.80
2023-04-23T20:56:54.315Z,100078.20
2023-04-23T20:59:23.120Z,100073.40
2023-04-23T21:01:51.848Z,100068.80
2023-04-23T21:04:20.923Z,100071.00
2023-04-23T21:06:51.347Z,100071.60
2023-04-23T21:09:19.816Z,100068.80
2023-04-23T21:11:48.501Z,100063.80
2023-04-23T21:14:17.662Z,100063.60
2023-04-23T21:16:46.196Z,100064.00
2023-04-23T21:19:14.765Z,100062.80
2023-04-23T21:21:43.665Z,100060.60
2023-04-23T21:24:12.237Z,100056.20
2023-04-23T21:26:41.437Z,100051.60
2023-04-23T21:29:10.024Z,100053.60
2023-04-23T21:31:44.329Z,100045.60
2023-04-23T21:34:15.259Z,100043.20
2023-04-23T21:36:47.057Z,100045.60
2023-04-23T21:39:16.644Z,100036.20
2023-04-23T21:41:46.973Z,100030.60
2023-04-23T21:44:17.398Z,100032.40
2023-04-23T21:46:47.111Z,100029.80
2023-04-23T21:49:17.641Z,100028.80
2023-04-23T21:51:46.535Z,100025.20
2023-04-23T21:54:15.219Z,100019.00
2023-04-23T21:56:43.805Z,100017.80
2023-04-23T21:59:12.593Z,100012.20
2023-04-23T22:01:41.362Z,100012.00
2023-04-23T22:04:10.583Z,100009.40
2023-04-23T22:06:39.289Z,100011.00
2023-04-23T22:09:07.964Z,100008.60
2023-04-23T22:11:36.746Z,100010.40
2023-04-23T22:14:06.558Z,100012.80
2023-04-23T22:16:35.419Z,100008.60
2023-04-23T22:19:04.875Z,100008.20
2023-04-23T22:21:33.538Z,100004.80
2023-04-23T22:24:03.972Z,100001.00
2023-04-23T22:26:34.190Z,100003.60
2023-04-23T22:29:02.975Z,100000.60
2023-04-23T22:31:31.511Z,100001.40
2023-04-23T22:34:01.341Z,100014.40
2023-04-23T22:36:30.071Z,100015.40
2023-04-23T22:38:58.655Z,100012.80
2023-04-23T22:41:27.332Z,100011.20
2023-04-23T22:43:56.128Z,100010.00
2023-04-23T22:46:24.776Z,100003.80
2023-04-23T22:48:53.749Z,99995.40
2023-04-23T22:51:22.394Z,99987.00
2023-04-23T22:53:51.388Z,99978.00
2023-04-23T22:56:20.279Z,99974.20
2023-04-23T22:58:48.860Z,99974.00
2023-04-23T23:01:18.483Z,99966.80
2023-04-23T23:03:47.319Z,99963.20
2023-04-23T23:06:17.715Z,99958.80
2023-04-23T23:08:46.582Z,99960.00
2023-04-23T23:11:15.268Z,99960.00
2023-04-23T23:13:45.707Z,99962.00
2023-04-23T23:16:15.136Z,99967.20
2023-04-23T23:18:43.986Z,99971.40
2023-04-23T23:21:12.574Z,99969.80
2023-04-23T23:23:41.266Z,99970.80
2023-04-23T23:26:09.948Z,99970.20
2023-04-23T23:28:38.526Z,99965.60
2023-04-23T23:31:07.770Z,99953.40
2023-04-23T23:33:36.670Z,99944.80
2023-04-23T23:36:07.235Z,99940.20
2023-04-23T23:38:35.737Z,99941.40
2023-04-23T23:41:04.430Z,99935.60
2023-04-23T23:43:33.002Z,99933.80
2023-04-23T23:46:01.898Z,99933.80
2023-04-23T23:48:30.480Z,99937.60
2023-04-23T23:50:59.239Z,99940.40
2023-04-23T23:53:27.752Z,99933.80
2023-04-23T23:55:56.349Z,99931.80
2023-04-23T23:58:25.032Z,99927.20
